Terminal Aerodrome Forecast
Issued by NWS Amarillo, TX

Home | Current Version | Previous Version | Text Only | Print | Product List | Glossary On
Versions: 1 2 3 4 5 6 7 8 9 10 11 12 13
978
FTUS44 KAMA 252320
TAFAMA
TAF
KAMA 252320Z 2600/2624 19015KT P6SM SKC
     FM261400 28013KT P6SM OVC150=

USA.gov is the U.S. government's official web portal to all federal, state and local government web resources and services.